Whitefish, Canada
Current Conditions -  °F | °C
As of 11:00 PM on Friday 24 Oct 2014 (Local Time) from CYSB Reporting Station
Overcast Overcast  
Wind Chill: 41°   Ceiling: 1700
Heat Index: 45°   Visibility: 15mi
Dew Point: 45°   Wind: 6mph
Humidity: 100%   Direction: 240°WSW
Pressure: 29.84"   Gusts: NA
Location:  46.37°N, 81.32°W
Report Text: CYSB 250300Z 24005KT 15SM OVC017 07/07 A2984 RMK SC8 SLP113
Loading
Personal Weather Stations






























Interactive Weather Map New forecast layout! Learn more

10-Day Weather Forecast

Advertisements
Track Severe Weather on mobile